createdAt,value
2022-09-13T00:01:10.213Z,3.33
2022-09-13T00:03:37.733Z,3.37
2022-09-13T00:06:13.931Z,3.45
2022-09-13T00:08:41.209Z,3.70
2022-09-13T00:11:08.408Z,2.87
2022-09-13T00:13:35.120Z,3.20
2022-09-13T00:16:04.111Z,3.45
2022-09-13T00:18:30.987Z,3.72
2022-09-13T00:21:15.547Z,3.08
2022-09-13T00:23:46.636Z,3.53
2022-09-13T00:26:16.166Z,3.85
2022-09-13T00:28:43.156Z,3.90
2022-09-13T00:31:10.050Z,4.05
2022-09-13T00:33:36.957Z,3.97
2022-09-13T00:36:08.598Z,4.07
2022-09-13T00:38:39.556Z,3.60
2022-09-13T00:41:09.180Z,4.40
2022-09-13T00:43:49.610Z,3.97
2022-09-13T00:46:49.378Z,3.35
2022-09-13T00:51:51.100Z,3.75
2022-09-13T00:54:22.373Z,4.05
2022-09-13T00:56:55.054Z,4.25
2022-09-13T00:59:33.653Z,4.50
2022-09-13T01:02:02.397Z,4.53
2022-09-13T01:04:31.847Z,3.45
2022-09-13T01:07:03.048Z,4.55
2022-09-13T01:09:33.394Z,4.03
2022-09-13T01:12:08.330Z,3.75
2022-09-13T01:14:36.098Z,5.35
2022-09-13T01:17:04.087Z,4.40
2022-09-13T01:19:30.861Z,3.75
2022-09-13T01:22:24.198Z,3.45
2022-09-13T01:25:15.846Z,3.42
2022-09-13T01:28:01.013Z,2.95
2022-09-13T01:30:45.916Z,3.28
2022-09-13T01:33:19.899Z,3.12
2022-09-13T01:35:46.476Z,3.75
2022-09-13T01:38:49.626Z,3.10
2022-09-13T01:42:00.452Z,3.50
2022-09-13T01:44:42.063Z,3.70
2022-09-13T01:47:24.726Z,3.42
2022-09-13T01:50:21.378Z,3.00
2022-09-13T01:52:58.105Z,3.47
2022-09-13T01:55:45.287Z,3.33
2022-09-13T01:58:17.795Z,3.65
2022-09-13T02:00:54.608Z,2.97
2022-09-13T02:03:48.078Z,4.10
2022-09-13T02:06:21.447Z,3.30
2022-09-13T02:08:54.413Z,2.60
2022-09-13T02:11:23.010Z,3.20
2022-09-13T02:13:52.157Z,2.30
2022-09-13T02:16:33.950Z,2.37
2022-09-13T02:19:11.046Z,2.87
2022-09-13T02:21:44.853Z,3.37
2022-09-13T02:24:17.016Z,3.05
2022-09-13T02:26:47.129Z,3.60
2022-09-13T02:29:18.558Z,3.35
2022-09-13T02:32:16.749Z,3.30
2022-09-13T02:34:52.676Z,2.90
2022-09-13T02:37:20.417Z,3.00
2022-09-13T02:39:53.617Z,3.65
2022-09-13T02:42:23.557Z,3.05
2022-09-13T02:44:54.155Z,2.75
2022-09-13T02:47:36.025Z,3.53
2022-09-13T02:50:14.774Z,2.70
2022-09-13T02:52:50.267Z,2.78
2022-09-13T02:55:42.668Z,3.58
2022-09-13T02:58:26.288Z,3.03
2022-09-13T03:00:54.901Z,3.60
2022-09-13T03:03:22.157Z,3.37
2022-09-13T03:05:48.811Z,4.53
2022-09-13T03:08:18.659Z,3.20
2022-09-13T03:13:55.047Z,3.60
2022-09-13T03:16:38.147Z,3.87
2022-09-13T03:19:24.348Z,3.67
2022-09-13T03:22:11.369Z,4.55
2022-09-13T03:25:03.093Z,3.75
2022-09-13T03:27:48.718Z,4.03
2022-09-13T03:30:17.581Z,4.18
2022-09-13T03:33:02.776Z,4.22
2022-09-13T03:35:53.173Z,3.50
2022-09-13T03:38:25.261Z,3.97
2022-09-13T03:41:17.686Z,3.10
2022-09-13T03:43:46.976Z,3.50
2022-09-13T03:46:32.658Z,3.90
2022-09-13T03:49:07.075Z,3.62
2022-09-13T03:51:34.140Z,3.90
2022-09-13T03:54:04.603Z,4.32
2022-09-13T03:56:31.470Z,4.05
2022-09-13T03:58:58.316Z,3.45
2022-09-13T04:01:25.548Z,4.45
2022-09-13T04:03:56.631Z,3.25
2022-09-13T04:06:23.767Z,3.47
2022-09-13T04:08:50.932Z,3.22
2022-09-13T04:11:17.608Z,4.47
2022-09-13T04:13:44.270Z,3.58
2022-09-13T04:16:11.002Z,4.07
2022-09-13T04:18:37.937Z,3.92
2022-09-13T04:21:04.968Z,3.78
2022-09-13T04:23:31.950Z,3.75
2022-09-13T04:26:06.419Z,4.12
2022-09-13T04:28:33.459Z,4.22
2022-09-13T04:31:02.136Z,3.40
2022-09-13T04:33:28.808Z,3.00
2022-09-13T04:35:59.664Z,2.72
2022-09-13T04:38:27.127Z,3.00
2022-09-13T04:40:55.206Z,3.83
2022-09-13T04:43:22.542Z,3.55
2022-09-13T04:45:49.567Z,3.72
2022-09-13T04:48:16.935Z,3.30
2022-09-13T04:50:45.029Z,3.85
2022-09-13T04:53:12.026Z,3.58
2022-09-13T04:55:39.132Z,4.70
2022-09-13T04:58:06.132Z,3.90
2022-09-13T05:00:33.600Z,4.30
2022-09-13T05:03:00.396Z,4.37
2022-09-13T05:05:28.969Z,5.43
2022-09-13T05:07:56.016Z,3.95
2022-09-13T05:10:22.660Z,4.50
2022-09-13T05:12:49.291Z,4.93
2022-09-13T05:15:16.542Z,5.03
2022-09-13T05:17:43.358Z,6.12
2022-09-13T05:20:10.783Z,4.53
2022-09-13T05:22:37.527Z,4.62
2022-09-13T05:25:04.652Z,4.25
2022-09-13T05:27:31.398Z,3.78
2022-09-13T05:29:58.264Z,3.35
2022-09-13T05:32:25.048Z,2.83
2022-09-13T05:34:51.698Z,3.33
2022-09-13T05:37:19.038Z,3.05
2022-09-13T05:40:07.824Z,3.05
2022-09-13T05:42:32.462Z,4.32
2022-09-13T05:44:59.146Z,3.97
2022-09-13T05:47:25.822Z,3.17
2022-09-13T05:50:09.488Z,3.35
2022-09-13T05:52:39.102Z,3.75
2022-09-13T05:55:06.496Z,3.40
2022-09-13T05:57:33.236Z,5.07
2022-09-13T06:00:00.102Z,4.55
2022-09-13T06:02:27.043Z,4.22
2022-09-13T06:04:53.901Z,4.68
2022-09-13T06:07:20.710Z,3.70
2022-09-13T06:09:47.838Z,3.42
2022-09-13T06:12:14.555Z,4.00
2022-09-13T06:14:41.502Z,3.42
2022-09-13T06:17:08.176Z,3.25
2022-09-13T06:19:35.415Z,3.58
2022-09-13T06:22:03.227Z,4.68
2022-09-13T06:24:29.917Z,3.55
2022-09-13T06:26:57.447Z,3.72
2022-09-13T06:29:24.257Z,3.00
2022-09-13T06:31:51.116Z,3.78
2022-09-13T06:34:17.953Z,3.72
2022-09-13T06:36:44.947Z,2.92
2022-09-13T06:39:11.688Z,3.40
2022-09-13T06:41:39.048Z,3.17
2022-09-13T06:44:05.790Z,3.00
2022-09-13T06:46:35.202Z,3.12
2022-09-13T06:49:04.910Z,2.25
2022-09-13T06:51:33.370Z,3.00
2022-09-13T06:54:00.537Z,3.30
2022-09-13T06:56:29.267Z,4.03
2022-09-13T06:58:58.665Z,4.67
2022-09-13T07:01:46.163Z,3.50
2022-09-13T07:04:17.432Z,3.62
2022-09-13T07:06:47.858Z,4.65
2022-09-13T07:09:21.683Z,4.28
2022-09-13T07:11:54.590Z,2.95
2022-09-13T07:14:24.583Z,3.22
2022-09-13T07:16:52.364Z,3.12
2022-09-13T07:19:22.947Z,3.15
2022-09-13T07:21:50.579Z,3.42
2022-09-13T07:24:18.034Z,3.17
2022-09-13T07:26:46.886Z,3.00
2022-09-13T07:29:19.515Z,2.92
2022-09-13T07:31:48.567Z,3.30
2022-09-13T07:34:20.727Z,3.30
2022-09-13T07:36:48.296Z,2.65
2022-09-13T07:39:20.316Z,3.25
2022-09-13T07:41:49.098Z,3.00
2022-09-13T07:44:15.947Z,2.70
2022-09-13T07:46:45.699Z,2.60
2022-09-13T07:49:14.616Z,2.70
2022-09-13T07:51:43.479Z,2.78
2022-09-13T07:54:15.149Z,2.58
2022-09-13T07:56:42.289Z,2.45
2022-09-13T07:59:14.748Z,2.55
2022-09-13T08:01:50.661Z,2.62
2022-09-13T08:04:19.845Z,2.80
2022-09-13T08:06:47.113Z,2.42
2022-09-13T08:09:15.219Z,2.50
2022-09-13T08:23:24.833Z,2.45
2022-09-13T08:25:52.121Z,2.30
2022-09-13T08:28:27.474Z,2.28
2022-09-13T08:30:55.007Z,3.53
2022-09-13T08:33:22.315Z,2.35
2022-09-13T08:35:53.776Z,2.00
2022-09-13T08:38:20.741Z,2.05
2022-09-13T08:40:54.966Z,1.92
2022-09-13T08:43:29.704Z,2.35
2022-09-13T08:46:29.434Z,2.20
2022-09-13T08:49:03.781Z,2.40
2022-09-13T08:51:40.644Z,1.73
2022-09-13T08:54:13.002Z,2.50
2022-09-13T08:57:02.712Z,2.10
2022-09-13T09:00:22.077Z,2.00
2022-09-13T09:02:58.200Z,1.87
2022-09-13T09:05:29.204Z,1.73
2022-09-13T09:08:03.341Z,1.58
2022-09-13T09:10:41.753Z,1.55
2022-09-13T09:13:24.653Z,1.60
2022-09-13T09:16:03.402Z,2.25
2022-09-13T09:18:35.533Z,2.08
2022-09-13T09:21:07.139Z,1.98
2022-09-13T09:23:49.809Z,1.42
2022-09-13T09:26:29.914Z,1.58
2022-09-13T09:29:01.433Z,1.95
2022-09-13T09:31:38.931Z,2.10
2022-09-13T09:34:08.536Z,1.73
2022-09-13T09:36:46.424Z,1.77
2022-09-13T09:39:16.577Z,2.00
2022-09-13T09:41:45.100Z,2.22
2022-09-13T09:44:22.713Z,1.90
2022-09-13T09:46:59.996Z,1.80
2022-09-13T09:49:51.351Z,1.85
2022-09-13T09:52:28.611Z,1.80
2022-09-13T09:55:11.320Z,1.60
2022-09-13T09:57:57.078Z,1.70
2022-09-13T10:00:27.396Z,2.05
2022-09-13T10:02:57.776Z,2.17
2022-09-13T10:05:26.495Z,1.65
2022-09-13T10:08:01.159Z,1.62
2022-09-13T10:10:44.877Z,2.25
2022-09-13T10:13:22.809Z,1.92
2022-09-13T10:16:01.505Z,2.10
2022-09-13T10:18:45.799Z,2.05
2022-09-13T10:21:18.634Z,2.03
2022-09-13T10:23:50.989Z,2.00
2022-09-13T10:26:29.102Z,2.00
2022-09-13T10:29:13.823Z,1.90
2022-09-13T10:31:44.004Z,2.20
2022-09-13T10:34:21.257Z,2.97
2022-09-13T10:37:03.071Z,2.10
2022-09-13T10:39:35.613Z,2.15
2022-09-13T10:42:10.564Z,2.20
2022-09-13T10:44:52.504Z,1.58
2022-09-13T10:47:21.582Z,1.95
2022-09-13T10:52:44.358Z,2.08
2022-09-13T10:55:20.572Z,2.22
2022-09-13T10:57:49.717Z,2.22
2022-09-13T11:03:16.470Z,2.10
2022-09-13T11:05:51.199Z,2.15
2022-09-13T11:08:36.682Z,2.33
2022-09-13T11:11:31.817Z,2.12
2022-09-13T11:14:12.464Z,2.12
2022-09-13T11:17:15.921Z,1.90
2022-09-13T11:20:08.084Z,1.85
2022-09-13T11:22:34.889Z,1.80
2022-09-13T11:25:34.303Z,2.75
2022-09-13T11:28:15.211Z,2.58
2022-09-13T11:30:59.483Z,1.48
2022-09-13T11:33:45.812Z,1.62
2022-09-13T11:36:28.814Z,2.20
2022-09-13T11:39:25.279Z,1.70
2022-09-13T11:42:18.800Z,1.75
2022-09-13T11:44:54.550Z,2.22
2022-09-13T11:47:38.513Z,2.08
2022-09-13T11:50:30.151Z,1.65
2022-09-13T11:53:00.322Z,2.42
2022-09-13T11:55:38.355Z,1.85
2022-09-13T11:58:15.441Z,1.62
2022-09-13T12:00:47.636Z,1.50
2022-09-13T12:03:23.489Z,1.80
2022-09-13T12:06:15.430Z,1.80
2022-09-13T12:08:50.092Z,2.08
2022-09-13T12:11:37.887Z,1.52
2022-09-13T12:14:14.401Z,1.80
2022-09-13T12:16:46.275Z,1.70
2022-09-13T12:19:28.274Z,1.65
2022-09-13T12:22:00.303Z,1.77
2022-09-13T12:24:52.401Z,1.80
2022-09-13T12:27:43.402Z,1.62
2022-09-13T12:30:17.621Z,1.65
2022-09-13T12:32:46.230Z,1.55
2022-09-13T12:35:33.921Z,1.60
2022-09-13T12:38:31.851Z,1.45
2022-09-13T12:41:36.186Z,1.77
2022-09-13T12:44:23.399Z,1.62
2022-09-13T12:47:13.533Z,1.70
2022-09-13T12:49:47.651Z,1.27
2022-09-13T12:52:30.855Z,1.60
2022-09-13T12:55:46.154Z,1.75
2022-09-13T12:58:49.104Z,1.50
2022-09-13T13:01:20.708Z,1.87
2022-09-13T13:03:58.118Z,1.77
2022-09-13T13:06:37.328Z,1.45
2022-09-13T13:14:29.550Z,1.65
2022-09-13T13:17:45.871Z,2.42
2022-09-13T13:20:39.132Z,2.33
2022-09-13T13:23:25.092Z,1.42
2022-09-13T13:26:14.018Z,1.80
2022-09-13T13:28:44.050Z,1.80
2022-09-13T13:31:32.657Z,1.92
2022-09-13T13:34:14.141Z,2.00
2022-09-13T13:36:41.159Z,2.62
2022-09-13T13:39:13.909Z,1.80
2022-09-13T13:42:06.429Z,1.90
2022-09-13T13:44:33.562Z,1.85
2022-09-13T13:47:09.429Z,1.80
2022-09-13T13:49:39.253Z,1.60
2022-09-13T13:52:08.851Z,2.20
2022-09-13T13:54:45.598Z,1.83
2022-09-13T13:57:41.351Z,6.43
2022-09-13T14:00:21.382Z,4.62
2022-09-13T14:02:51.155Z,1.95
2022-09-13T14:05:24.339Z,2.05
2022-09-13T14:08:01.696Z,1.58
2022-09-13T14:10:50.086Z,1.90
2022-09-13T14:13:52.325Z,2.10
2022-09-13T14:16:43.870Z,1.42
2022-09-13T14:19:24.407Z,11.73
2022-09-13T14:22:21.092Z,15.10
2022-09-13T14:24:56.591Z,6.03
2022-09-13T14:27:25.372Z,2.72
2022-09-13T14:29:55.150Z,5.15
2022-09-13T14:32:35.033Z,4.28
2022-09-13T14:35:20.859Z,6.90
2022-09-13T14:37:47.761Z,3.80
2022-09-13T14:40:22.544Z,3.20
2022-09-13T14:42:51.870Z,2.42
2022-09-13T14:48:07.418Z,1.80
2022-09-13T14:50:39.705Z,2.10
2022-09-13T14:53:12.512Z,1.80
2022-09-13T14:56:07.553Z,1.62
2022-09-13T14:58:45.718Z,1.45
2022-09-13T15:01:19.845Z,1.58
2022-09-13T15:03:48.869Z,1.70
2022-09-13T15:06:27.832Z,2.47
2022-09-13T15:09:00.891Z,3.10
2022-09-13T15:11:34.698Z,2.00
2022-09-13T15:14:38.506Z,2.12
2022-09-13T15:17:08.163Z,1.77
2022-09-13T15:19:49.829Z,2.40
2022-09-13T15:22:30.487Z,2.55
2022-09-13T15:25:02.482Z,4.43
2022-09-13T15:27:43.178Z,2.50
2022-09-13T15:30:31.110Z,2.53
2022-09-13T15:33:10.199Z,2.15
2022-09-13T15:35:42.730Z,1.62
2022-09-13T15:38:31.813Z,1.80
2022-09-13T15:41:03.022Z,3.87
2022-09-13T15:43:31.497Z,2.60
2022-09-13T15:46:00.276Z,2.35
2022-09-13T15:48:33.118Z,2.67
2022-09-13T15:51:18.587Z,2.37
2022-09-13T15:53:47.029Z,2.20
2022-09-13T15:56:20.286Z,1.80
2022-09-13T15:58:48.014Z,2.70
2022-09-13T16:01:16.573Z,2.75
2022-09-13T16:03:43.450Z,2.40
2022-09-13T16:06:10.582Z,3.87
2022-09-13T16:08:39.015Z,3.00
2022-09-13T16:11:07.147Z,2.85
2022-09-13T16:13:34.581Z,3.30
2022-09-13T16:16:01.910Z,2.90
2022-09-13T16:18:28.864Z,2.53
2022-09-13T16:20:55.894Z,2.70
2022-09-13T16:23:22.833Z,3.08
2022-09-13T16:25:57.172Z,2.33
2022-09-13T16:28:24.244Z,2.37
2022-09-13T16:30:51.753Z,2.45
2022-09-13T16:33:19.992Z,3.72
2022-09-13T16:35:47.793Z,2.20
2022-09-13T16:38:14.942Z,2.95
2022-09-13T16:40:43.563Z,2.50
2022-09-13T16:43:10.452Z,3.13
2022-09-13T16:45:41.553Z,2.67
2022-09-13T16:48:08.878Z,4.35
2022-09-13T16:50:39.231Z,3.37
2022-09-13T16:53:06.118Z,6.00
2022-09-13T16:55:33.126Z,6.95
2022-09-13T16:57:59.952Z,5.62
2022-09-13T17:00:28.856Z,10.35
2022-09-13T17:02:56.566Z,6.45
2022-09-13T17:05:24.722Z,6.72
2022-09-13T17:07:52.266Z,7.28
2022-09-13T17:10:19.998Z,6.10
2022-09-13T17:12:46.913Z,6.50
2022-09-13T17:15:14.126Z,9.95
2022-09-13T17:17:41.172Z,5.28
2022-09-13T17:20:12.289Z,3.30
2022-09-13T17:22:39.471Z,4.72
2022-09-13T17:25:08.091Z,4.03
2022-09-13T17:27:35.332Z,4.40
2022-09-13T17:30:05.072Z,2.75
2022-09-13T17:32:32.101Z,2.65
2022-09-13T17:34:59.897Z,2.40
2022-09-13T17:37:27.061Z,2.65
2022-09-13T17:39:54.319Z,3.20
2022-09-13T17:42:23.355Z,3.42
2022-09-13T17:44:50.868Z,3.30
2022-09-13T17:47:17.797Z,3.60
2022-09-13T17:49:45.811Z,2.95
2022-09-13T17:52:13.631Z,2.97
2022-09-13T17:54:41.059Z,3.40
2022-09-13T17:57:08.110Z,3.12
2022-09-13T17:59:35.874Z,3.40
2022-09-13T18:02:02.929Z,3.17
2022-09-13T18:04:29.960Z,2.70
2022-09-13T18:06:56.877Z,2.90
2022-09-13T18:09:24.836Z,4.12
2022-09-13T18:11:52.010Z,2.90
2022-09-13T18:14:24.521Z,3.12
2022-09-13T18:16:55.874Z,3.12
2022-09-13T18:19:39.493Z,2.90
2022-09-13T18:22:11.512Z,2.80
2022-09-13T18:24:38.376Z,3.50
2022-09-13T18:27:05.391Z,2.90
2022-09-13T18:29:33.211Z,3.28
2022-09-13T18:32:00.273Z,3.60
2022-09-13T18:34:29.261Z,3.67
2022-09-13T18:36:56.531Z,3.58
2022-09-13T18:39:23.737Z,3.00
2022-09-13T18:41:50.874Z,2.80
2022-09-13T18:44:18.980Z,3.37
2022-09-13T18:46:47.230Z,3.95
2022-09-13T18:49:15.663Z,3.58
2022-09-13T18:51:44.485Z,4.43
2022-09-13T18:54:14.967Z,4.00
2022-09-13T18:56:42.416Z,3.03
2022-09-13T18:59:10.422Z,3.42
2022-09-13T19:01:41.736Z,3.10
2022-09-13T19:04:12.936Z,2.85
2022-09-13T19:06:46.458Z,3.12
2022-09-13T19:09:16.016Z,2.75
2022-09-13T19:14:18.425Z,2.55
2022-09-13T19:19:16.674Z,2.72
2022-09-13T19:21:44.396Z,2.95
2022-09-13T19:24:18.489Z,2.70
2022-09-13T19:26:47.814Z,3.10
2022-09-13T19:29:17.388Z,2.60
2022-09-13T19:34:16.129Z,3.00
2022-09-13T19:36:44.634Z,3.50
2022-09-13T19:39:12.042Z,2.70
2022-09-13T19:41:40.591Z,3.35
2022-09-13T19:44:08.686Z,3.15
2022-09-13T19:46:39.044Z,3.35
2022-09-13T19:49:08.676Z,2.80
2022-09-13T19:54:05.222Z,2.87
2022-09-13T19:56:34.909Z,2.60
2022-09-13T20:01:34.206Z,3.67
2022-09-13T20:04:03.577Z,3.47
2022-09-13T20:06:38.582Z,3.05
2022-09-13T20:09:06.330Z,3.30
2022-09-13T20:11:36.633Z,2.45
2022-09-13T20:14:06.750Z,3.05
2022-09-13T20:16:35.075Z,3.05
2022-09-13T20:19:10.510Z,3.10
2022-09-13T20:21:46.042Z,3.10
2022-09-13T20:24:12.796Z,3.03
2022-09-13T20:26:39.566Z,2.92
2022-09-13T20:29:07.663Z,3.37
2022-09-13T20:31:36.781Z,3.83
2022-09-13T20:34:07.144Z,2.58
2022-09-13T20:36:35.866Z,3.17
2022-09-13T20:39:03.892Z,2.80
2022-09-13T20:41:31.732Z,3.08
2022-09-13T20:44:02.159Z,2.97
2022-09-13T20:46:31.431Z,2.58
2022-09-13T20:48:58.757Z,2.55
2022-09-13T20:51:29.585Z,2.70
2022-09-13T20:54:00.871Z,2.67
2022-09-13T20:56:29.033Z,2.15
2022-09-13T20:58:58.444Z,2.55
2022-09-13T21:01:27.199Z,2.72
2022-09-13T21:03:55.309Z,2.30
2022-09-13T21:06:25.391Z,3.12
2022-09-13T21:08:53.490Z,3.03
2022-09-13T21:11:33.681Z,2.80
2022-09-13T21:14:09.063Z,2.60
2022-09-13T21:16:41.425Z,2.35
2022-09-13T21:19:09.227Z,2.67
2022-09-13T21:21:38.525Z,2.40
2022-09-13T21:24:09.961Z,2.50
2022-09-13T21:26:37.876Z,2.40
2022-09-13T21:29:04.672Z,2.75
2022-09-13T21:31:33.764Z,2.40
2022-09-13T21:34:07.619Z,2.50
2022-09-13T21:36:35.944Z,2.42
2022-09-13T21:39:04.259Z,2.50
2022-09-13T21:41:32.003Z,2.67
2022-09-13T21:43:58.772Z,2.00
2022-09-13T21:46:28.369Z,2.58
2022-09-13T21:51:33.708Z,2.40
2022-09-13T21:54:02.430Z,2.33
2022-09-13T21:56:31.995Z,2.83
2022-09-13T22:01:30.218Z,2.50
2022-09-13T22:03:57.899Z,2.50
2022-09-13T22:06:25.291Z,2.87
2022-09-13T22:08:56.918Z,2.33
2022-09-13T22:11:26.779Z,3.05
2022-09-13T22:13:54.389Z,3.60
2022-09-13T22:16:29.576Z,2.60
2022-09-13T22:18:59.245Z,2.97
2022-09-13T22:23:55.233Z,2.67
2022-09-13T22:26:25.468Z,2.10
2022-09-13T22:28:54.720Z,2.72
2022-09-13T22:31:32.729Z,2.42
2022-09-13T22:34:01.432Z,2.22
2022-09-13T22:36:29.209Z,2.62
2022-09-13T22:38:56.241Z,2.00
2022-09-13T22:41:25.999Z,2.65
2022-09-13T22:43:53.409Z,2.10
2022-09-13T22:46:23.202Z,2.10
2022-09-13T22:48:50.645Z,2.60
2022-09-13T22:51:19.141Z,2.25
2022-09-13T22:53:48.200Z,2.15
2022-09-13T22:56:24.511Z,2.00
2022-09-13T22:58:56.441Z,2.45
2022-09-13T23:01:24.236Z,2.20
2022-09-13T23:03:51.337Z,2.53
2022-09-13T23:06:21.177Z,2.20
2022-09-13T23:11:22.443Z,2.70
2022-09-13T23:13:51.388Z,2.50
2022-09-13T23:16:26.926Z,2.62
2022-09-13T23:18:54.940Z,2.53
2022-09-13T23:21:23.173Z,2.45
2022-09-13T23:23:50.425Z,2.58
2022-09-13T23:26:20.038Z,3.12
2022-09-13T23:31:15.619Z,2.97
2022-09-13T23:33:45.011Z,2.58
2022-09-13T23:36:13.607Z,2.70
2022-09-13T23:38:41.633Z,2.53
2022-09-13T23:41:10.146Z,2.40
2022-09-13T23:43:37.012Z,2.50
2022-09-13T23:46:03.787Z,2.90
2022-09-13T23:48:30.867Z,2.17
2022-09-13T23:51:02.139Z,2.28
2022-09-13T23:53:29.707Z,2.80
2022-09-13T23:55:56.909Z,2.62
2022-09-13T23:58:23.753Z,2.85
